»·PEaware :: UAL576 KPSP-KMFR

UAL576 :: KPSP-KMFR

FLIGHT INFORMATION

Flight Status: Arrived
Operator:
United Airlines
More flights by this operator :: More flights under this callsign
Pilot: Anonymous 8274 (8274)
Aircraft: BOEING 737-300
(B733)
More flights by this aircraft type
Origin: KPSP Palm Springs Intl
United States
Destination: KMFR Rogue Valley Intl-Medford
United States
More flights between these airports :: More routes between these airports
Route: +CATH1 PSP V386 PMD LANDO EHF J65 RBL ZUNAS
File this flight plan on PilotEdge
Remarks: NO Shortcuts please... Thanks!
Altitude:
(Current/Filed)
28,000ft
Speed:
(Current/Filed)
440kts
Departed: 22-Sep-17 08:37 PM
Arrived: 22-Sep-17 10:28 PM
Distance/Time
Traveled:
593nm/1:51
Distance/Time
To Go:
Arrived

Flight Plot

Page will automatically refresh every two minutes.

Flight plan parsing failed; only flown route is shown


Map Options




Map Legend


Flown Route
Filed Route
Departure Airport
Arrival Airport
Navaid (VOR, NDB)
Fix

Horizontal Profiles

Position Reports

Time Latitude Longitude Heading Altitude Ground
Speed
22-Sep-17 20:11 33.823711 -116.506188 225 484ft 0kts
22-Sep-17 20:12 33.823711 -116.506188 225 484ft 0kts
22-Sep-17 20:13 33.823711 -116.506188 225 484ft 0kts
22-Sep-17 20:14 33.823711 -116.506188 225 484ft 0kts
22-Sep-17 20:15 33.823711 -116.506188 225 484ft 0kts
22-Sep-17 20:16 33.823711 -116.506188 225 484ft 0kts
22-Sep-17 20:17 33.823711 -116.506188 225 484ft 0kts
22-Sep-17 20:18 33.823711 -116.506188 225 484ft 0kts
22-Sep-17 20:19 33.823711 -116.506188 225 484ft 0kts
22-Sep-17 20:20 33.823711 -116.506188 225 484ft 0kts
22-Sep-17 20:21 33.823711 -116.506188 225 484ft 0kts
22-Sep-17 20:22 33.823711 -116.506188 225 484ft 0kts
22-Sep-17 20:23 33.823711 -116.506188 225 484ft 0kts
22-Sep-17 20:24 33.823711 -116.506188 225 484ft 0kts
22-Sep-17 20:25 33.823711 -116.506188 225 484ft 0kts
22-Sep-17 20:26 33.823711 -116.506188 225 484ft 0kts
22-Sep-17 20:27 33.823711 -116.506188 225 484ft 0kts
22-Sep-17 20:28 33.823711 -116.506188 225 484ft 0kts
22-Sep-17 20:29 33.823712 -116.506188 225 484ft 0kts
22-Sep-17 20:30 33.823966 -116.505867 224 484ft 1kts
22-Sep-17 20:31 33.824388 -116.505875 142 484ft 1kts
22-Sep-17 20:32 33.824397 -116.505882 143 484ft 0kts
22-Sep-17 20:33 33.824397 -116.505882 143 484ft 0kts
22-Sep-17 20:34 33.824397 -116.505882 143 484ft 0kts
22-Sep-17 20:35 33.824397 -116.505882 143 484ft 0kts
22-Sep-17 20:36 33.824394 -116.505880 143 484ft 0kts
22-Sep-17 20:37 33.822120 -116.502960 144 484ft 24kts
22-Sep-17 20:38 33.818514 -116.499088 87 484ft 0kts
22-Sep-17 20:39 33.818514 -116.499086 87 484ft 0kts
22-Sep-17 20:40 33.819461 -116.498575 321 484ft 6kts
22-Sep-17 20:41 33.837216 -116.514387 321 743ft 141kts
22-Sep-17 20:42 33.871241 -116.544945 321 1949ft 179kts
22-Sep-17 20:43 33.920492 -116.575354 18 3918ft 228kts
22-Sep-17 20:44 33.926013 -116.497103 117 5924ft 294kts
22-Sep-17 20:45 33.868970 -116.425219 121 8730ft 304kts
22-Sep-17 20:46 33.886955 -116.337703 27 10371ft 330kts
22-Sep-17 20:47 33.981695 -116.335720 351 12177ft 357kts
22-Sep-17 20:48 34.067710 -116.380606 292 14405ft 359kts
22-Sep-17 20:49 34.063930 -116.500847 279 16547ft 367kts
22-Sep-17 20:50 34.107116 -116.611293 294 18443ft 378kts
22-Sep-17 20:51 34.139568 -116.697314 292 19812ft 385kts
22-Sep-17 20:52 34.182816 -116.814751 292 21694ft 391kts
22-Sep-17 20:53 34.227161 -116.935757 292 23348ft 399kts
22-Sep-17 20:54 34.272175 -117.059049 291 24864ft 407kts
22-Sep-17 20:55 34.317716 -117.184271 291 26330ft 412kts
22-Sep-17 20:56 34.363777 -117.311426 291 27629ft 417kts
22-Sep-17 20:57 34.409795 -117.438938 290 28155ft 412kts
22-Sep-17 20:58 34.455486 -117.566083 290 28140ft 412kts
22-Sep-17 20:59 34.497383 -117.683186 290 28122ft 412kts
22-Sep-17 21:00 34.528702 -117.771065 290 28142ft 412kts
22-Sep-17 21:01 34.571686 -117.891915 290 28141ft 412kts
22-Sep-17 21:02 34.615664 -118.016029 290 28124ft 412kts
22-Sep-17 21:03 34.676764 -118.129903 306 28116ft 419kts
22-Sep-17 21:04 34.750622 -118.235638 306 28129ft 417kts
22-Sep-17 21:05 34.824591 -118.342586 306 28126ft 416kts
22-Sep-17 21:06 34.898361 -118.449581 306 28175ft 414kts
22-Sep-17 21:07 34.972061 -118.556801 306 28223ft 414kts
22-Sep-17 21:08 35.048533 -118.653543 316 28219ft 418kts
22-Sep-17 21:09 35.128976 -118.734384 316 28211ft 416kts
22-Sep-17 21:10 35.216916 -118.823475 316 28223ft 414kts
22-Sep-17 21:11 35.305217 -118.913321 316 28138ft 413kts
22-Sep-17 21:12 35.392339 -119.002256 316 28142ft 412kts
22-Sep-17 21:13 35.479930 -119.091783 318 28140ft 411kts
22-Sep-17 21:14 35.585705 -119.148328 334 28142ft 418kts
22-Sep-17 21:15 35.691374 -119.201484 334 28138ft 414kts
22-Sep-17 21:16 35.796856 -119.254849 334 28141ft 413kts
22-Sep-17 21:17 35.900568 -119.307471 334 28140ft 412kts
22-Sep-17 21:18 36.005482 -119.360855 334 28142ft 412kts
22-Sep-17 21:19 36.107125 -119.412719 336 28147ft 406kts
22-Sep-17 21:20 36.208044 -119.464224 338 28137ft 402kts
22-Sep-17 21:21 36.310978 -119.517038 338 28141ft 402kts
22-Sep-17 21:22 36.413877 -119.569989 338 28140ft 402kts
22-Sep-17 21:23 36.499584 -119.614211 338 28141ft 402kts
22-Sep-17 21:24 36.612714 -119.674733 336 28141ft 402kts
22-Sep-17 21:25 36.697431 -119.721910 334 28143ft 402kts
22-Sep-17 21:26 36.799941 -119.773282 341 28149ft 401kts
22-Sep-17 21:27 36.900844 -119.830292 321 28144ft 404kts
22-Sep-17 21:28 36.984837 -119.923983 321 28142ft 406kts
22-Sep-17 21:29 37.069457 -120.015992 321 28140ft 404kts
22-Sep-17 21:30 37.150842 -120.104439 321 28144ft 405kts
22-Sep-17 21:31 37.234374 -120.195645 321 28139ft 405kts
22-Sep-17 21:32 37.318977 -120.288357 321 28142ft 405kts
22-Sep-17 21:33 37.403575 -120.381353 321 28141ft 405kts
22-Sep-17 21:34 37.488057 -120.474513 321 28140ft 405kts
22-Sep-17 21:35 37.572032 -120.567400 321 28141ft 405kts
22-Sep-17 21:36 37.653817 -120.658159 320 28180ft 405kts
22-Sep-17 21:37 37.724722 -120.737282 321 28195ft 404kts
22-Sep-17 21:38 37.807251 -120.829394 321 28172ft 403kts
22-Sep-17 21:39 37.891313 -120.923495 321 28198ft 405kts
22-Sep-17 21:40 37.973818 -121.016145 321 28194ft 404kts
22-Sep-17 21:41 38.056906 -121.109744 321 28166ft 405kts
22-Sep-17 21:42 38.139388 -121.202774 321 28168ft 405kts
22-Sep-17 21:43 38.218370 -121.292217 321 28145ft 405kts
22-Sep-17 21:44 38.301143 -121.386330 321 28169ft 405kts
22-Sep-17 21:45 38.384083 -121.480937 320 28167ft 405kts
22-Sep-17 21:46 38.470602 -121.564484 343 28171ft 400kts
22-Sep-17 21:47 38.576558 -121.605257 342 28169ft 401kts
22-Sep-17 21:48 38.679517 -121.646876 342 28168ft 401kts
22-Sep-17 21:49 38.783495 -121.689356 342 28168ft 402kts
22-Sep-17 21:50 38.888952 -121.732366 342 28168ft 402kts
22-Sep-17 21:51 38.995117 -121.775782 342 28168ft 402kts
22-Sep-17 21:52 39.100073 -121.818837 342 28168ft 402kts
22-Sep-17 21:53 39.204210 -121.861601 342 28164ft 403kts
22-Sep-17 21:54 39.304147 -121.902841 342 28196ft 403kts
22-Sep-17 21:55 39.410798 -121.947000 342 28195ft 403kts
22-Sep-17 21:56 39.517455 -121.991301 342 28195ft 404kts
22-Sep-17 21:57 39.623919 -122.035667 342 28195ft 403kts
22-Sep-17 21:58 39.730734 -122.080324 342 28195ft 404kts
22-Sep-17 21:59 39.836886 -122.124846 342 28194ft 404kts
22-Sep-17 22:00 39.942954 -122.169477 342 28195ft 404kts
22-Sep-17 22:01 40.048808 -122.214166 342 28195ft 405kts
22-Sep-17 22:02 40.149141 -122.253136 348 28185ft 375kts
22-Sep-17 22:03 40.249138 -122.287108 347 28214ft 385kts
22-Sep-17 22:04 40.352356 -122.322190 347 28222ft 384kts
22-Sep-17 22:05 40.455407 -122.357315 347 28222ft 384kts
22-Sep-17 22:06 40.557453 -122.392197 347 28240ft 373kts
22-Sep-17 22:07 40.650847 -122.424191 347 28265ft 345kts
22-Sep-17 22:08 40.743807 -122.456175 347 28305ft 346kts
22-Sep-17 22:09 40.836665 -122.488197 347 28297ft 345kts
22-Sep-17 22:10 40.929020 -122.520200 347 28303ft 345kts
22-Sep-17 22:11 41.021571 -122.552332 347 28079ft 345kts
22-Sep-17 22:12 41.108788 -122.582696 347 27994ft 343kts
22-Sep-17 22:13 41.199910 -122.614413 345 25979ft 367kts
22-Sep-17 22:14 41.296536 -122.648273 345 24010ft 355kts
22-Sep-17 22:15 41.389325 -122.681102 346 22142ft 342kts
22-Sep-17 22:16 41.481989 -122.713768 346 20288ft 336kts
22-Sep-17 22:17 41.572962 -122.745912 346 18472ft 332kts
22-Sep-17 22:18 41.662373 -122.777565 340 16616ft 328kts
22-Sep-17 22:19 41.742175 -122.805935 338 15048ft 298kts
22-Sep-17 22:20 41.826396 -122.835985 343 13349ft 339kts
22-Sep-17 22:21 41.906279 -122.784273 43 11386ft 334kts
22-Sep-17 22:22 41.963961 -122.705373 44 10770ft 261kts
22-Sep-17 22:23 42.010796 -122.641427 41 10208ft 240kts
22-Sep-17 22:24 42.069436 -122.598953 9 9759ft 264kts
22-Sep-17 22:25 42.140731 -122.610541 333 8413ft 275kts
22-Sep-17 22:26 42.193691 -122.673717 310 7412ft 238kts
22-Sep-17 22:27 42.232302 -122.737061 299 6613ft 200kts
22-Sep-17 22:28 42.258179 -122.790854 308 5272ft 165kts
22-Sep-17 22:29 42.292831 -122.829927 333 3358ft 161kts
22-Sep-17 22:30 42.322450 -122.845542 338 2569ft 159kts
22-Sep-17 22:31 42.362293 -122.866644 338 1402ft 149kts
22-Sep-17 22:32 42.385508 -122.878812 337 1322ft 26kts
22-Sep-17 22:33 42.385806 -122.880125 249 1322ft 0kts
22-Sep-17 22:34 42.382770 -122.879041 160 1322ft 21kts
22-Sep-17 22:35 42.376234 -122.875575 165 1322ft 37kts
22-Sep-17 22:36 42.371103 -122.874783 168 1322ft 0kts
22-Sep-17 22:37 42.371103 -122.874783 168 1322ft 0kts
22-Sep-17 22:38 42.371103 -122.874783 168 1322ft 0kts
22-Sep-17 22:39 42.371103 -122.874783 168 1322ft 0kts
22-Sep-17 22:40 42.371103 -122.874783 168 1322ft 0kts
22-Sep-17 22:41 42.312282 -122.840284 338 2821ft 156kts
22-Sep-17 22:42 42.268842 -122.805827 313 4589ft 165kts
22-Sep-17 22:43 42.306449 -122.837331 339 2941ft 156kts
22-Sep-17 22:44 42.347721 -122.859032 337 1852ft 158kts
22-Sep-17 22:45 42.380504 -122.876179 339 1322ft 62kts
22-Sep-17 22:46 42.366878 -122.869053 338 1328ft 142kts

Navigation Log

Ident Type
Flight plan parsing failed, navigation log unavailable